Time;durP1;ratioP1;P1;durP2;ratioP2;P2;SDS_P1;SDS_P2;PMS_P1;PMS_P2;Temp;Humidity;BMP_temperature;BMP_pressure;BME280_temperature;BME280_humidity;BME280_pressure;Samples;Min_cycle;Max_cycle;Signal;HPM_P1;HPM_P2
2023/08/28 00:00:50;;;;;;;;;;;;;;;;;;2070441;28;20357;-82
2023/08/28 00:02:11;;;;;;;;;;;;;;;;;;2073549;28;19918;-81
2023/08/28 00:03:32;;;;;;;;;;;;;;;;;;2074585;28;20384;-81
2023/08/28 00:04:52;;;;;;;;;;;;;;;;;;2072991;28;19916;-81
2023/08/28 00:06:14;;;;;;;;;;;;;;;;;;2073751;28;19913;-82
2023/08/28 00:07:35;;;;;;;;;;;;;;;;;;2071739;28;19975;-78
2023/08/28 00:08:56;;;;;;;;;;;;;;;;;;2062048;28;19914;-82
2023/08/28 00:10:17;;;;;;;;;;;;;;;;;;2065768;28;19914;-82
2023/08/28 00:11:37;;;;;;;;;;;;;;;;;;2067548;28;19917;-81
2023/08/28 00:12:58;;;;;;;;;;;;;;;;;;2056092;28;20251;-82
2023/08/28 00:14:19;;;;;;;;;;;;;;;;;;2070154;28;19971;-82
2023/08/28 00:15:39;;;;;;;;;;;;;;;;;;2066435;28;19914;-82
2023/08/28 00:17:00;;;;;;;;;;;;;;;;;;2071889;28;19909;-82
2023/08/28 00:18:22;;;;;;;;;;;;;;;;;;2061698;28;19921;-82
2023/08/28 00:19:42;;;;;;;;;;;;;;;;;;2065878;28;19909;-82
2023/08/28 00:21:03;;;;;;;;;;;;;;;;;;2065078;28;20336;-81
2023/08/28 00:22:24;;;;;;;;;;;;;;;;;;2056344;28;19915;-81
2023/08/28 00:23:44;;;;;;;;;;;;;;;;;;2060443;28;19957;-81
2023/08/28 00:25:07;;;;;;;;;;;;;;;;;;2072286;28;19910;-81
2023/08/28 00:26:28;;;;;;;;;;;;;;;;;;2067966;28;19910;-82
2023/08/28 00:27:48;;;;;;;;;;;;;;;;;;2050146;28;19911;-81
2023/08/28 00:29:09;;;;;;;;;;;;;;;;;;2067651;28;20064;-81
2023/08/28 00:30:30;;;;;;;;;;;;;;;;;;2062533;28;19957;-82
2023/08/28 00:31:50;;;;;;;;;;;;;;;;;;2075524;28;20388;-82
2023/08/28 00:33:11;;;;;;;;;;;;;;;;;;2071652;28;19909;-82
2023/08/28 00:34:32;;;;;;;;;;;;;;;;;;2069023;28;19922;-82
2023/08/28 00:35:53;;;;;;;;;;;;;;;;;;2071915;28;19910;-82
2023/08/28 00:37:13;;;;;;;;;;;;;;;;;;2070956;28;19916;-82
2023/08/28 00:38:34;;;;;;;;;;;;;;;;;;2073686;28;19977;-82
2023/08/28 00:39:55;;;;;;;;;;;;;;;;;;2064179;28;19910;-81
2023/08/28 00:41:15;;;;;;;;;;;;;;;;;;2063949;28;19988;-82
2023/08/28 00:42:36;;;;;;;;;;;;;;;;;;2074030;28;20307;-82
2023/08/28 00:43:57;;;;;;;;;;;;;;;;;;2068170;28;19909;-83
2023/08/28 00:45:18;;;;;;;;;;;;;;;;;;2062714;28;20280;-82
2023/08/28 00:46:38;;;;;;;;;;;;;;;;;;2059980;28;19914;-82
2023/08/28 00:47:59;;;;;;;;;;;;;;;;;;2060537;28;19922;-82
2023/08/28 00:49:20;;;;;;;;;;;;;;;;;;2069664;28;19925;-83
2023/08/28 00:50:41;;;;;;;;;;;;;;;;;;2076717;28;20003;-82
2023/08/28 00:52:02;;;;;;;;;;;;;;;;;;2075243;28;19925;-82
2023/08/28 00:53:23;;;;;;;;;;;;;;;;;;2077070;28;19995;-82
2023/08/28 00:54:44;;;;;;;;;;;;;;;;;;2065902;28;19909;-82
2023/08/28 00:56:04;;;;;;;;;;;;;;;;;;2062344;28;19910;-82
2023/08/28 00:57:25;;;;;;;;;;;;;;;;;;2055951;28;19911;-82
2023/08/28 00:58:46;;;;;;;;;;;;;;;;;;2066994;28;19913;-82
2023/08/28 01:00:07;;;;;;;;;;;;;;;;;;2065916;28;20333;-82
2023/08/28 01:01:28;;;;;;;;;;;;;;;;;;2064087;28;19922;-82
2023/08/28 01:02:49;;;;;;;;;;;;;;;;;;2070774;28;19913;-82
2023/08/28 01:04:09;;;;;;;;;;;;;;;;;;2072590;28;19913;-82
2023/08/28 01:05:31;;;;;;;;;;;;;;;;;;2060694;28;19918;-82
2023/08/28 01:06:51;;;;;;;;;;;;;;;;;;2064526;28;19910;-82
2023/08/28 01:08:12;;;;;;;;;;;;;;;;;;2066469;28;19909;-82
2023/08/28 01:09:33;;;;;;;;;;;;;;;;;;2065373;28;19914;-82
2023/08/28 01:10:54;;;;;;;;;;;;;;;;;;2067604;28;20337;-82
2023/08/28 01:12:14;;;;;;;;;;;;;;;;;;2079618;28;19924;-82
2023/08/28 01:13:37;;;;;;;;;;;;;;;;;;2068821;28;19913;-83
2023/08/28 01:14:58;;;;;;;;;;;;;;;;;;2072080;28;19909;-82
2023/08/28 01:16:19;;;;;;;;;;;;;;;;;;2071785;28;19917;-82
2023/08/28 01:17:40;;;;;;;;;;;;;;;;;;2079103;28;19913;-82
2023/08/28 01:19:00;;;;;;;;;;;;;;;;;;2070211;28;19909;-82
2023/08/28 01:20:21;;;;;;;;;;;;;;;;;;2072451;28;19914;-83
2023/08/28 01:21:42;;;;;;;;;;;;;;;;;;2066946;28;19914;-83
2023/08/28 01:23:04;;;;;;;;;;;;;;;;;;2074955;28;19917;-82
2023/08/28 01:24:25;;;;;;;;;;;;;;;;;;2072434;28;19921;-83
2023/08/28 01:25:46;;;;;;;;;;;;;;;;;;2080586;28;19909;-81
2023/08/28 01:27:06;;;;;;;;;;;;;;;;;;2075405;28;20285;-81
2023/08/28 01:28:27;;;;;;;;;;;;;;;;;;2076023;28;19921;-81
2023/08/28 01:29:48;;;;;;;;;;;;;;;;;;2075096;28;19910;-83
2023/08/28 01:31:08;;;;;;;;;;;;;;;;;;2065709;28;20329;-83
2023/08/28 01:32:29;;;;;;;;;;;;;;;;;;2052860;28;20068;-82
2023/08/28 01:33:50;;;;;;;;;;;;;;;;;;2069220;28;20291;-82
2023/08/28 01:35:11;;;;;;;;;;;;;;;;;;2058854;28;19933;-82
2023/08/28 01:36:31;;;;;;;;;;;;;;;;;;2058216;28;19910;-83
2023/08/28 01:37:52;;;;;;;;;;;;;;;;;;2064581;28;19910;-83
2023/08/28 01:39:13;;;;;;;;;;;;;;;;;;2058620;28;19910;-82
2023/08/28 01:40:33;;;;;;;;;;;;;;;;;;2064340;28;19910;-83
2023/08/28 01:41:54;;;;;;;;;;;;;;;;;;2061498;28;20001;-83
2023/08/28 01:43:15;;;;;;;;;;;;;;;;;;2072208;28;20376;-82
2023/08/28 01:44:35;;;;;;;;;;;;;;;;;;2063673;28;19909;-83
2023/08/28 01:45:56;;;;;;;;;;;;;;;;;;2069509;28;19918;-81
2023/08/28 01:47:17;;;;;;;;;;;;;;;;;;2073432;28;19921;-82
2023/08/28 01:48:38;;;;;;;;;;;;;;;;;;2070316;28;20247;-80
2023/08/28 01:49:58;;;;;;;;;;;;;;;;;;2070175;28;19921;-80
2023/08/28 01:51:19;;;;;;;;;;;;;;;;;;2066586;28;19913;-83
2023/08/28 01:52:40;;;;;;;;;;;;;;;;;;2065790;28;19922;-80
2023/08/28 01:54:01;;;;;;;;;;;;;;;;;;2060153;28;19981;-81
2023/08/28 01:55:21;;;;;;;;;;;;;;;;;;2057622;28;20246;-81
2023/08/28 01:56:42;;;;;;;;;;;;;;;;;;2065999;28;19917;-81
2023/08/28 01:58:03;;;;;;;;;;;;;;;;;;2061292;28;20455;-81
2023/08/28 01:59:23;;;;;;;;;;;;;;;;;;2072827;28;19914;-81
2023/08/28 02:00:44;;;;;;;;;;;;;;;;;;2067088;28;19914;-81
2023/08/28 02:02:05;;;;;;;;;;;;;;;;;;2061800;28;19929;-81
2023/08/28 02:03:25;;;;;;;;;;;;;;;;;;2062477;28;20361;-80
2023/08/28 02:04:47;;;;;;;;;;;;;;;;;;2062463;28;19910;-81
2023/08/28 02:06:07;;;;;;;;;;;;;;;;;;2058557;28;19910;-81
2023/08/28 02:07:28;;;;;;;;;;;;;;;;;;2065408;28;19957;-81
2023/08/28 02:08:49;;;;;;;;;;;;;;;;;;2060993;28;19909;-81
2023/08/28 02:10:10;;;;;;;;;;;;;;;;;;2060994;28;19966;-80
2023/08/28 02:11:30;;;;;;;;;;;;;;;;;;2064485;28;20310;-80
2023/08/28 02:12:51;;;;;;;;;;;;;;;;;;2071507;28;19917;-82
2023/08/28 02:14:12;;;;;;;;;;;;;;;;;;2064249;28;19988;-80
2023/08/28 02:15:32;;;;;;;;;;;;;;;;;;2069308;28;19916;-80
2023/08/28 02:16:53;;;;;;;;;;;;;;;;;;2056061;28;19914;-80
2023/08/28 02:18:14;;;;;;;;;;;;;;;;;;2065564;28;19961;-80
2023/08/28 02:19:35;;;;;;;;;;;;;;;;;;2065193;28;19914;-81
2023/08/28 02:20:55;;;;;;;;;;;;;;;;;;2070080;28;20353;-80
2023/08/28 02:22:16;;;;;;;;;;;;;;;;;;2071119;28;19937;-80
2023/08/28 02:23:37;;;;;;;;;;;;;;;;;;2063096;28;20365;-81
2023/08/28 02:24:58;;;;;;;;;;;;;;;;;;2067502;28;19917;-80
2023/08/28 02:26:19;;;;;;;;;;;;;;;;;;2057044;28;19914;-80
2023/08/28 02:27:39;;;;;;;;;;;;;;;;;;2066788;28;20324;-80
2023/08/28 02:29:00;;;;;;;;;;;;;;;;;;2064059;28;19941;-81
2023/08/28 02:30:21;;;;;;;;;;;;;;;;;;2066147;28;20210;-81
2023/08/28 02:31:42;;;;;;;;;;;;;;;;;;2069545;28;20737;-80
2023/08/28 02:33:02;;;;;;;;;;;;;;;;;;2063615;28;19918;-81
2023/08/28 02:34:23;;;;;;;;;;;;;;;;;;2070374;28;19921;-80
2023/08/28 02:35:44;;;;;;;;;;;;;;;;;;2072246;28;19979;-80
2023/08/28 02:37:04;;;;;;;;;;;;;;;;;;2074318;28;19973;-80
2023/08/28 02:38:25;;;;;;;;;;;;;;;;;;2070744;28;20333;-81
2023/08/28 02:39:46;;;;;;;;;;;;;;;;;;2066196;28;19914;-80
2023/08/28 02:41:10;;;;;;;;;;;;;;;;;;2063041;28;20266;-80
2023/08/28 02:42:30;;;;;;;;;;;;;;;;;;2056847;28;19922;-80
2023/08/28 02:43:51;;;;;;;;;;;;;;;;;;2065601;28;19921;-80
2023/08/28 02:45:12;;;;;;;;;;;;;;;;;;2066928;28;19917;-80
2023/08/28 02:46:32;;;;;;;;;;;;;;;;;;2077388;28;19913;-81
2023/08/28 02:47:53;;;;;;;;;;;;;;;;;;2073345;28;19973;-80
2023/08/28 02:49:14;;;;;;;;;;;;;;;;;;2069819;28;19910;-78
2023/08/28 02:50:34;;;;;;;;;;;;;;;;;;2065216;28;19985;-76
2023/08/28 02:51:55;;;;;;;;;;;;;;;;;;2069670;28;20392;-77
2023/08/28 02:53:16;;;;;;;;;;;;;;;;;;2067744;28;19914;-77
2023/08/28 02:54:37;;;;;;;;;;;;;;;;;;2061728;28;19910;-77
2023/08/28 02:55:57;;;;;;;;;;;;;;;;;;2064695;28;19910;-77
2023/08/28 02:57:18;;;;;;;;;;;;;;;;;;2071880;28;19910;-77
2023/08/28 02:58:39;;;;;;;;;;;;;;;;;;2065988;28;20340;-76
2023/08/28 02:59:59;;;;;;;;;;;;;;;;;;2069674;28;19918;-77
2023/08/28 03:01:20;;;;;;;;;;;;;;;;;;2060235;28;19921;-77
2023/08/28 03:02:41;;;;;;;;;;;;;;;;;;2069512;28;19937;-76
2023/08/28 03:04:02;;;;;;;;;;;;;;;;;;2065792;28;19918;-77
2023/08/28 03:05:23;;;;;;;;;;;;;;;;;;2070843;28;20250;-77
2023/08/28 03:06:43;;;;;;;;;;;;;;;;;;2066288;28;19909;-77
2023/08/28 03:08:04;;;;;;;;;;;;;;;;;;2063088;28;20029;-77
2023/08/28 03:09:25;;;;;;;;;;;;;;;;;;2063094;28;19910;-77
2023/08/28 03:10:46;;;;;;;;;;;;;;;;;;2069673;28;19910;-77
2023/08/28 03:12:07;;;;;;;;;;;;;;;;;;2073945;28;19918;-77
2023/08/28 03:13:27;;;;;;;;;;;;;;;;;;2065433;28;19921;-76
2023/08/28 03:14:48;;;;;;;;;;;;;;;;;;2069283;28;19917;-77
2023/08/28 03:16:09;;;;;;;;;;;;;;;;;;2077030;28;19920;-77
2023/08/28 03:17:30;;;;;;;;;;;;;;;;;;2074136;28;20410;-77
2023/08/28 03:18:51;;;;;;;;;;;;;;;;;;2065608;28;19921;-76
2023/08/28 03:20:11;;;;;;;;;;;;;;;;;;2071012;28;19918;-77
2023/08/28 03:21:32;;;;;;;;;;;;;;;;;;2065973;28;19917;-77
2023/08/28 03:22:55;;;;;;;;;;;;;;;;;;2069227;28;19922;-77
2023/08/28 03:24:15;;;;;;;;;;;;;;;;;;2070226;28;19944;-77
2023/08/28 03:25:36;;;;;;;;;;;;;;;;;;2063534;28;20464;-77
2023/08/28 03:26:57;;;;;;;;;;;;;;;;;;2066366;28;19910;-77
2023/08/28 03:28:17;;;;;;;;;;;;;;;;;;2071635;28;19985;-78
2023/08/28 03:29:38;;;;;;;;;;;;;;;;;;2066018;28;20403;-78
2023/08/28 03:30:59;;;;;;;;;;;;;;;;;;2065858;28;19910;-78
2023/08/28 03:32:20;;;;;;;;;;;;;;;;;;2066457;28;20384;-78
2023/08/28 03:33:40;;;;;;;;;;;;;;;;;;2065907;28;19917;-78
2023/08/28 03:35:01;;;;;;;;;;;;;;;;;;2064962;28;20336;-78
2023/08/28 03:36:22;;;;;;;;;;;;;;;;;;2064450;28;19910;-78
2023/08/28 03:37:43;;;;;;;;;;;;;;;;;;2066836;28;20298;-79
2023/08/28 03:39:04;;;;;;;;;;;;;;;;;;2063395;28;19914;-78
2023/08/28 03:40:25;;;;;;;;;;;;;;;;;;2063603;28;19918;-77
2023/08/28 03:41:45;;;;;;;;;;;;;;;;;;2066353;28;19909;-78
2023/08/28 03:43:06;;;;;;;;;;;;;;;;;;2064878;28;19921;-79
2023/08/28 03:44:27;;;;;;;;;;;;;;;;;;2071341;28;20316;-78
2023/08/28 03:45:48;;;;;;;;;;;;;;;;;;2071827;28;20023;-78
2023/08/28 03:47:08;;;;;;;;;;;;;;;;;;2065864;28;19936;-78
2023/08/28 03:48:29;;;;;;;;;;;;;;;;;;2065521;28;19918;-78
2023/08/28 03:49:50;;;;;;;;;;;;;;;;;;2068959;28;19940;-79
2023/08/28 03:51:10;;;;;;;;;;;;;;;;;;2057477;28;19995;-78
2023/08/28 03:52:31;;;;;;;;;;;;;;;;;;2069523;28;19913;-78
2023/08/28 03:53:52;;;;;;;;;;;;;;;;;;2066781;28;19917;-78
2023/08/28 03:55:12;;;;;;;;;;;;;;;;;;2069956;28;19910;-78
2023/08/28 03:56:33;;;;;;;;;;;;;;;;;;2080423;28;19909;-78
2023/08/28 03:57:54;;;;;;;;;;;;;;;;;;2063289;28;19913;-78
2023/08/28 03:59:15;;;;;;;;;;;;;;;;;;2066882;28;19970;-78
2023/08/28 04:00:35;;;;;;;;;;;;;;;;;;2071570;28;19909;-81
2023/08/28 04:01:56;;;;;;;;;;;;;;;;;;2065790;28;19910;-81
2023/08/28 04:03:17;;;;;;;;;;;;;;;;;;2070715;28;19917;-81
2023/08/28 04:04:37;;;;;;;;;;;;;;;;;;2061727;28;20420;-82
2023/08/28 04:05:58;;;;;;;;;;;;;;;;;;2056161;28;19918;-81
2023/08/28 04:07:19;;;;;;;;;;;;;;;;;;2065712;28;19918;-81
2023/08/28 04:08:40;;;;;;;;;;;;;;;;;;2059183;28;19914;-81
2023/08/28 04:10:01;;;;;;;;;;;;;;;;;;2059377;28;19914;-81
2023/08/28 04:11:21;;;;;;;;;;;;;;;;;;2055040;28;19910;-81
2023/08/28 04:12:42;;;;;;;;;;;;;;;;;;2064198;28;19914;-81
2023/08/28 04:14:03;;;;;;;;;;;;;;;;;;2062752;28;19913;-81
2023/08/28 04:15:23;;;;;;;;;;;;;;;;;;2067527;28;20000;-81
2023/08/28 04:16:44;;;;;;;;;;;;;;;;;;2068877;28;19925;-81
2023/08/28 04:18:05;;;;;;;;;;;;;;;;;;2065653;28;19917;-81
2023/08/28 04:19:26;;;;;;;;;;;;;;;;;;2071039;28;19909;-82
2023/08/28 04:20:46;;;;;;;;;;;;;;;;;;2065628;28;20321;-81
2023/08/28 04:22:07;;;;;;;;;;;;;;;;;;2065708;28;20389;-81
2023/08/28 04:23:28;;;;;;;;;;;;;;;;;;2070416;28;20004;-82
2023/08/28 04:24:48;;;;;;;;;;;;;;;;;;2071159;28;19917;-82
2023/08/28 04:26:09;;;;;;;;;;;;;;;;;;2077341;28;20284;-82
2023/08/28 04:27:30;;;;;;;;;;;;;;;;;;2073076;28;19923;-82
2023/08/28 04:28:50;;;;;;;;;;;;;;;;;;2066873;28;20319;-81
2023/08/28 04:30:11;;;;;;;;;;;;;;;;;;2062657;28;19914;-82
2023/08/28 04:31:32;;;;;;;;;;;;;;;;;;2064736;28;20261;-81
2023/08/28 04:32:52;;;;;;;;;;;;;;;;;;2074827;28;19913;-82
2023/08/28 04:34:13;;;;;;;;;;;;;;;;;;2064962;28;19914;-82
2023/08/28 04:35:34;;;;;;;;;;;;;;;;;;2075745;28;20384;-82
2023/08/28 04:36:55;;;;;;;;;;;;;;;;;;2081613;28;19910;-82
2023/08/28 04:38:15;;;;;;;;;;;;;;;;;;2073423;28;19917;-82
2023/08/28 04:39:36;;;;;;;;;;;;;;;;;;2070112;28;19971;-82
2023/08/28 04:40:57;;;;;;;;;;;;;;;;;;2070765;28;20381;-82
2023/08/28 04:42:17;;;;;;;;;;;;;;;;;;2054483;28;19910;-82
2023/08/28 04:43:38;;;;;;;;;;;;;;;;;;2060085;28;20305;-82
2023/08/28 04:44:59;;;;;;;;;;;;;;;;;;2056163;28;19914;-82
2023/08/28 04:46:19;;;;;;;;;;;;;;;;;;2062177;28;19917;-82
2023/08/28 04:47:40;;;;;;;;;;;;;;;;;;2063264;28;19914;-82
2023/08/28 04:49:01;;;;;;;;;;;;;;;;;;2068870;28;19920;-82
2023/08/28 04:50:21;;;;;;;;;;;;;;;;;;2065665;28;19998;-82
2023/08/28 04:51:42;;;;;;;;;;;;;;;;;;2069207;28;19909;-82
2023/08/28 04:53:03;;;;;;;;;;;;;;;;;;2075832;28;19914;-82
2023/08/28 04:54:24;;;;;;;;;;;;;;;;;;2071623;28;19909;-82
2023/08/28 04:55:44;;;;;;;;;;;;;;;;;;2075407;28;19925;-82
2023/08/28 04:57:05;;;;;;;;;;;;;;;;;;2072732;28;20288;-81
2023/08/28 04:58:26;;;;;;;;;;;;;;;;;;2073819;28;19910;-81
2023/08/28 04:59:46;;;;;;;;;;;;;;;;;;2064944;28;20289;-81
2023/08/28 05:01:07;;;;;;;;;;;;;;;;;;2079195;28;19931;-82
2023/08/28 05:02:28;;;;;;;;;;;;;;;;;;2081240;28;19909;-81
2023/08/28 05:03:48;;;;;;;;;;;;;;;;;;2059510;28;19954;-81
2023/08/28 05:05:09;;;;;;;;;;;;;;;;;;2063714;28;19910;-81
2023/08/28 05:06:30;;;;;;;;;;;;;;;;;;2066775;28;20407;-81
2023/08/28 05:07:50;;;;;;;;;;;;;;;;;;2065374;28;19913;-82
2023/08/28 05:09:11;;;;;;;;;;;;;;;;;;2063928;28;19914;-81
2023/08/28 05:10:32;;;;;;;;;;;;;;;;;;2067480;28;19932;-77
2023/08/28 05:11:53;;;;;;;;;;;;;;;;;;2068214;28;19914;-78
2023/08/28 05:13:13;;;;;;;;;;;;;;;;;;2057527;28;19914;-77
2023/08/28 05:14:34;;;;;;;;;;;;;;;;;;2057391;28;20389;-78
2023/08/28 05:15:55;;;;;;;;;;;;;;;;;;2076973;28;19921;-78
2023/08/28 05:17:15;;;;;;;;;;;;;;;;;;2067679;28;19910;-79
2023/08/28 05:18:36;;;;;;;;;;;;;;;;;;2063061;28;20306;-79
2023/08/28 05:19:57;;;;;;;;;;;;;;;;;;2068141;28;20297;-79
2023/08/28 05:21:18;;;;;;;;;;;;;;;;;;2053387;28;19940;-80
2023/08/28 05:22:38;;;;;;;;;;;;;;;;;;2060045;28;19988;-79
2023/08/28 05:23:59;;;;;;;;;;;;;;;;;;2066296;28;19940;-79
2023/08/28 05:25:20;;;;;;;;;;;;;;;;;;2071228;28;19913;-78
2023/08/28 05:26:40;;;;;;;;;;;;;;;;;;2073093;28;19909;-79
2023/08/28 05:28:01;;;;;;;;;;;;;;;;;;2064726;28;19936;-79
2023/08/28 05:29:22;;;;;;;;;;;;;;;;;;2071142;28;19910;-79
2023/08/28 05:30:42;;;;;;;;;;;;;;;;;;2075953;28;20284;-79
2023/08/28 05:32:03;;;;;;;;;;;;;;;;;;2075750;28;19999;-78
2023/08/28 05:33:24;;;;;;;;;;;;;;;;;;2071159;28;19917;-79
2023/08/28 05:34:45;;;;;;;;;;;;;;;;;;2073513;28;19921;-79
2023/08/28 05:36:05;;;;;;;;;;;;;;;;;;2064412;28;20098;-78
2023/08/28 05:37:26;;;;;;;;;;;;;;;;;;2071188;28;19976;-79
2023/08/28 05:38:47;;;;;;;;;;;;;;;;;;2066104;28;19913;-79
2023/08/28 05:40:08;;;;;;;;;;;;;;;;;;2071168;28;20353;-78
2023/08/28 05:41:29;;;;;;;;;;;;;;;;;;2071314;28;19913;-78
2023/08/28 05:42:50;;;;;;;;;;;;;;;;;;2070773;28;20395;-77
2023/08/28 05:44:11;;;;;;;;;;;;;;;;;;2062447;28;19945;-78
2023/08/28 05:45:31;;;;;;;;;;;;;;;;;;2065715;28;19913;-78
2023/08/28 05:46:52;;;;;;;;;;;;;;;;;;2056563;28;20357;-78
2023/08/28 05:48:13;;;;;;;;;;;;;;;;;;2055365;28;19910;-79
2023/08/28 05:49:33;;;;;;;;;;;;;;;;;;2063454;28;19910;-79
2023/08/28 05:50:54;;;;;;;;;;;;;;;;;;2056388;28;20004;-78
2023/08/28 05:52:15;;;;;;;;;;;;;;;;;;2056234;28;19910;-78
2023/08/28 05:53:36;;;;;;;;;;;;;;;;;;2059495;28;19918;-79
2023/08/28 05:54:57;;;;;;;;;;;;;;;;;;2068157;28;20010;-79
2023/08/28 05:56:17;;;;;;;;;;;;;;;;;;2066705;28;20342;-79
2023/08/28 05:57:38;;;;;;;;;;;;;;;;;;2063406;28;19910;-78
2023/08/28 05:58:59;;;;;;;;;;;;;;;;;;2071334;28;19993;-77
2023/08/28 06:00:19;;;;;;;;;;;;;;;;;;2076097;28;19975;-77
2023/08/28 06:01:40;;;;;;;;;;;;;;;;;;2073225;28;19913;-77
2023/08/28 06:03:01;;;;;;;;;;;;;;;;;;2070475;28;19917;-77
2023/08/28 06:04:21;;;;;;;;;;;;;;;;;;2073162;28;19925;-79
2023/08/28 06:05:42;;;;;;;;;;;;;;;;;;2065867;28;19965;-77
2023/08/28 06:07:04;;;;;;;;;;;;;;;;;;2070812;28;19910;-77
2023/08/28 06:08:25;;;;;;;;;;;;;;;;;;2072894;28;19910;-77
2023/08/28 06:09:45;;;;;;;;;;;;;;;;;;2060492;28;19965;-77
2023/08/28 06:11:06;;;;;;;;;;;;;;;;;;2070159;28;20369;-77
2023/08/28 06:12:27;;;;;;;;;;;;;;;;;;2070468;28;19921;-77
2023/08/28 06:13:47;;;;;;;;;;;;;;;;;;2072220;28;19932;-77
2023/08/28 06:15:09;;;;;;;;;;;;;;;;;;2066551;28;19917;-78
2023/08/28 06:16:30;;;;;;;;;;;;;;;;;;2063070;28;19910;-78
2023/08/28 06:17:51;;;;;;;;;;;;;;;;;;2066559;28;20330;-79
2023/08/28 06:19:11;;;;;;;;;;;;;;;;;;2077758;28;19979;-78
2023/08/28 06:20:33;;;;;;;;;;;;;;;;;;2069052;28;19918;-79
2023/08/28 06:21:53;;;;;;;;;;;;;;;;;;2070942;28;20336;-77
2023/08/28 06:23:16;;;;;;;;;;;;;;;;;;2063015;28;19977;-80
2023/08/28 06:24:37;;;;;;;;;;;;;;;;;;2068300;28;19922;-78
2023/08/28 06:25:57;;;;;;;;;;;;;;;;;;2082353;28;20253;-78
2023/08/28 06:27:18;;;;;;;;;;;;;;;;;;2081750;28;19909;-78
2023/08/28 06:28:39;;;;;;;;;;;;;;;;;;2069772;28;19910;-78
2023/08/28 06:30:00;;;;;;;;;;;;;;;;;;2077006;28;19909;-78
2023/08/28 06:31:21;;;;;;;;;;;;;;;;;;2081315;28;19916;-78
2023/08/28 06:32:41;;;;;;;;;;;;;;;;;;2065094;28;19914;-78
2023/08/28 06:34:02;;;;;;;;;;;;;;;;;;2074871;28;19928;-78
2023/08/28 06:35:23;;;;;;;;;;;;;;;;;;2077360;28;19940;-79
2023/08/28 06:36:45;;;;;;;;;;;;;;;;;;2081965;28;19909;-78
2023/08/28 06:38:06;;;;;;;;;;;;;;;;;;2069958;28;19963;-78
2023/08/28 06:39:27;;;;;;;;;;;;;;;;;;2071751;28;20345;-78
2023/08/28 06:40:47;;;;;;;;;;;;;;;;;;2069539;28;19918;-79
2023/08/28 06:42:08;;;;;;;;;;;;;;;;;;2066863;28;20369;-78
2023/08/28 06:43:29;;;;;;;;;;;;;;;;;;2067503;28;19917;-78
2023/08/28 06:44:50;;;;;;;;;;;;;;;;;;2070615;28;20190;-78
2023/08/28 06:46:11;;;;;;;;;;;;;;;;;;2065190;28;19984;-78
2023/08/28 06:47:31;;;;;;;;;;;;;;;;;;2065866;28;19972;-79
2023/08/28 06:48:52;;;;;;;;;;;;;;;;;;2066914;28;19913;-78
2023/08/28 06:50:13;;;;;;;;;;;;;;;;;;2075596;28;20321;-78
2023/08/28 06:51:34;;;;;;;;;;;;;;;;;;2069164;28;20280;-79
2023/08/28 06:52:55;;;;;;;;;;;;;;;;;;2065862;28;19916;-79
2023/08/28 06:54:15;;;;;;;;;;;;;;;;;;2072073;28;19918;-79
2023/08/28 06:55:36;;;;;;;;;;;;;;;;;;2072594;28;19941;-79
2023/08/28 06:56:57;;;;;;;;;;;;;;;;;;2078919;28;19909;-79
2023/08/28 06:58:18;;;;;;;;;;;;;;;;;;2067332;28;19976;-79
2023/08/28 06:59:39;;;;;;;;;;;;;;;;;;2066295;28;20271;-79
2023/08/28 07:01:00;;;;;;;;;;;;;;;;;;2073131;28;19913;-80
2023/08/28 07:02:21;;;;;;;;;;;;;;;;;;2065420;28;20332;-79
2023/08/28 07:03:41;;;;;;;;;;;;;;;;;;2066585;28;19922;-79
2023/08/28 07:05:02;;;;;;;;;;;;;;;;;;2064992;28;19929;-79
2023/08/28 07:06:23;;;;;;;;;;;;;;;;;;2064523;28;19910;-79
2023/08/28 07:07:43;;;;;;;;;;;;;;;;;;2066638;28;19914;-79
2023/08/28 07:09:04;;;;;;;;;;;;;;;;;;2068399;28;19968;-79
2023/08/28 07:10:25;;;;;;;;;;;;;;;;;;2064688;28;19916;-79
2023/08/28 07:11:46;;;;;;;;;;;;;;;;;;2072972;28;19909;-79
2023/08/28 07:13:07;;;;;;;;;;;;;;;;;;2074040;28;20075;-79
2023/08/28 07:14:28;;;;;;;;;;;;;;;;;;2065139;28;20270;-79
2023/08/28 07:15:49;;;;;;;;;;;;;;;;;;2076703;28;19916;-79
2023/08/28 07:17:09;;;;;;;;;;;;;;;;;;2068008;28;19917;-79
2023/08/28 07:18:30;;;;;;;;;;;;;;;;;;2064923;28;19914;-79
2023/08/28 07:19:51;;;;;;;;;;;;;;;;;;2067637;28;19936;-79
2023/08/28 07:21:11;;;;;;;;;;;;;;;;;;2058835;28;19926;-80
2023/08/28 07:22:32;;;;;;;;;;;;;;;;;;2072569;28;20308;-79
2023/08/28 07:23:53;;;;;;;;;;;;;;;;;;2072107;28;19917;-79
2023/08/28 07:25:16;;;;;;;;;;;;;;;;;;2073803;28;19918;-79
2023/08/28 07:26:36;;;;;;;;;;;;;;;;;;2073413;28;20357;-79
2023/08/28 07:27:57;;;;;;;;;;;;;;;;;;2073400;28;19913;-79
2023/08/28 07:29:18;;;;;;;;;;;;;;;;;;2066742;28;19917;-79
2023/08/28 07:30:39;;;;;;;;;;;;;;;;;;2073696;28;19914;-79
2023/08/28 07:31:59;;;;;;;;;;;;;;;;;;2066022;28;20369;-80
2023/08/28 07:33:20;;;;;;;;;;;;;;;;;;2068449;28;19960;-79
2023/08/28 07:34:41;;;;;;;;;;;;;;;;;;2068515;28;19926;-79
2023/08/28 07:36:03;;;;;;;;;;;;;;;;;;2067698;28;19941;-79
2023/08/28 07:37:23;;;;;;;;;;;;;;;;;;2073180;28;19917;-80
2023/08/28 07:38:44;;;;;;;;;;;;;;;;;;2062042;28;19957;-79
2023/08/28 07:40:05;;;;;;;;;;;;;;;;;;2069925;28;19964;-79
2023/08/28 07:41:26;;;;;;;;;;;;;;;;;;2071283;28;19925;-79
2023/08/28 07:42:47;;;;;;;;;;;;;;;;;;2072327;28;19932;-79
2023/08/28 07:44:08;;;;;;;;;;;;;;;;;;2072430;28;19928;-80
2023/08/28 07:45:29;;;;;;;;;;;;;;;;;;2070414;28;20245;-80
2023/08/28 07:46:50;;;;;;;;;;;;;;;;;;2058303;28;19911;-80
2023/08/28 07:48:10;;;;;;;;;;;;;;;;;;2062536;28;19910;-79
2023/08/28 07:49:31;;;;;;;;;;;;;;;;;;2063540;28;19996;-79
2023/08/28 07:50:52;;;;;;;;;;;;;;;;;;2077978;28;19920;-79
2023/08/28 07:52:12;;;;;;;;;;;;;;;;;;2063716;28;19914;-79
2023/08/28 07:53:33;;;;;;;;;;;;;;;;;;2069344;28;19909;-79
2023/08/28 07:54:54;;;;;;;;;;;;;;;;;;2059365;28;19922;-80
2023/08/28 07:56:15;;;;;;;;;;;;;;;;;;2062094;28;19910;-80
2023/08/28 07:57:36;;;;;;;;;;;;;;;;;;2053509;28;19921;-79
2023/08/28 07:58:56;;;;;;;;;;;;;;;;;;2067997;28;19944;-79
2023/08/28 08:00:20;;;;;;;;;;;;;;;;;;2068790;28;20416;-80
2023/08/28 08:01:41;;;;;;;;;;;;;;;;;;2057330;28;19910;-80
2023/08/28 08:03:04;;;;;;;;;;;;;;;;;;2056187;28;19941;-79
2023/08/28 08:04:25;;;;;;;;;;;;;;;;;;2070024;28;19933;-80
2023/08/28 08:05:47;;;;;;;;;;;;;;;;;;2073804;28;19909;-80
2023/08/28 08:07:08;;;;;;;;;;;;;;;;;;2073468;28;19910;-78
2023/08/28 08:08:28;;;;;;;;;;;;;;;;;;2069302;28;19914;-79
2023/08/28 08:09:49;;;;;;;;;;;;;;;;;;2065057;28;20420;-80
2023/08/28 08:11:10;;;;;;;;;;;;;;;;;;2057537;28;19910;-80
2023/08/28 08:12:30;;;;;;;;;;;;;;;;;;2062046;28;19910;-80
2023/08/28 08:13:51;;;;;;;;;;;;;;;;;;2068325;28;19920;-78
2023/08/28 08:15:12;;;;;;;;;;;;;;;;;;2067636;28;19921;-78
2023/08/28 08:16:32;;;;;;;;;;;;;;;;;;2061377;28;19964;-78
2023/08/28 08:17:53;;;;;;;;;;;;;;;;;;2057605;28;19914;-77
2023/08/28 08:19:14;;;;;;;;;;;;;;;;;;2073880;28;19913;-78
2023/08/28 08:20:34;;;;;;;;;;;;;;;;;;2068991;28;19913;-78
2023/08/28 08:21:55;;;;;;;;;;;;;;;;;;2072865;28;19921;-77
2023/08/28 08:23:16;;;;;;;;;;;;;;;;;;2072379;28;19909;-77
2023/08/28 08:24:36;;;;;;;;;;;;;;;;;;2070032;28;19924;-77
2023/08/28 08:25:58;;;;;;;;;;;;;;;;;;2073358;28;20005;-80
2023/08/28 08:27:19;;;;;;;;;;;;;;;;;;2073209;28;19992;-80
2023/08/28 08:28:40;;;;;;;;;;;;;;;;;;2067908;28;19916;-80
2023/08/28 08:30:00;;;;;;;;;;;;;;;;;;2071513;28;19909;-80
2023/08/28 08:31:21;;;;;;;;;;;;;;;;;;2069844;28;19920;-80
2023/08/28 08:32:43;;;;;;;;;;;;;;;;;;2059188;28;20016;-80
2023/08/28 08:34:04;;;;;;;;;;;;;;;;;;2070497;28;20353;-79
2023/08/28 08:35:24;;;;;;;;;;;;;;;;;;2071557;28;20396;-81
2023/08/28 08:36:45;;;;;;;;;;;;;;;;;;2074724;28;19910;-81
2023/08/28 08:38:06;;;;;;;;;;;;;;;;;;2070911;28;19910;-80
2023/08/28 08:39:27;;;;;;;;;;;;;;;;;;2065152;28;19910;-80
2023/08/28 08:40:47;;;;;;;;;;;;;;;;;;2071484;28;20401;-77
2023/08/28 08:42:08;;;;;;;;;;;;;;;;;;2072868;28;19960;-78
2023/08/28 08:43:29;;;;;;;;;;;;;;;;;;2071709;28;19925;-77
2023/08/28 08:44:49;;;;;;;;;;;;;;;;;;2065669;28;20003;-78
2023/08/28 08:46:10;;;;;;;;;;;;;;;;;;2064209;28;20278;-76
2023/08/28 08:47:31;;;;;;;;;;;;;;;;;;2064935;28;19960;-78
2023/08/28 08:48:53;;;;;;;;;;;;;;;;;;2074733;28;19917;-78
2023/08/28 08:50:13;;;;;;;;;;;;;;;;;;2070900;28;19909;-77
2023/08/28 08:51:34;;;;;;;;;;;;;;;;;;2064038;28;20247;-77
2023/08/28 08:52:55;;;;;;;;;;;;;;;;;;2061154;28;19989;-78
2023/08/28 08:54:15;;;;;;;;;;;;;;;;;;2068830;28;19921;-77
2023/08/28 08:55:36;;;;;;;;;;;;;;;;;;2072624;28;19913;-78
2023/08/28 08:57:00;;;;;;;;;;;;;;;;;;2070170;28;19945;-78
2023/08/28 08:58:20;;;;;;;;;;;;;;;;;;2073066;28;19917;-78
2023/08/28 08:59:41;;;;;;;;;;;;;;;;;;2068035;28;20388;-77
2023/08/28 09:01:04;;;;;;;;;;;;;;;;;;2062142;28;19913;-77
2023/08/28 09:02:24;;;;;;;;;;;;;;;;;;2070481;28;19909;-77
2023/08/28 09:03:45;;;;;;;;;;;;;;;;;;2073685;28;20008;-80
2023/08/28 09:05:06;;;;;;;;;;;;;;;;;;2071479;28;19925;-79
2023/08/28 09:06:27;;;;;;;;;;;;;;;;;;2058007;28;19914;-78
2023/08/28 09:07:47;;;;;;;;;;;;;;;;;;2065450;28;19940;-79
2023/08/28 09:09:11;;;;;;;;;;;;;;;;;;2072603;28;19936;-79
2023/08/28 09:10:32;;;;;;;;;;;;;;;;;;2066739;28;19914;-78
2023/08/28 09:11:53;;;;;;;;;;;;;;;;;;2076325;28;19909;-78